createdAt,value
2023-04-25T00:01:34.808Z,12.92
2023-04-25T00:04:02.033Z,13.00
2023-04-25T00:06:29.299Z,13.14
2023-04-25T00:09:01.293Z,12.56
2023-04-25T00:11:28.167Z,12.60
2023-04-25T00:13:55.481Z,13.00
2023-04-25T00:16:22.375Z,13.21
2023-04-25T00:18:52.471Z,12.86
2023-04-25T00:21:20.997Z,13.19
2023-04-25T00:23:48.504Z,12.88
2023-04-25T00:26:15.455Z,13.12
2023-04-25T00:28:52.680Z,12.63
2023-04-25T00:31:19.710Z,13.03
2023-04-25T00:33:46.618Z,13.03
2023-04-25T00:36:13.542Z,13.50
2023-04-25T00:38:44.547Z,13.45
2023-04-25T00:41:11.464Z,12.79
2023-04-25T00:43:38.596Z,13.16
2023-04-25T00:46:05.504Z,13.34
2023-04-25T00:48:50.852Z,13.74
2023-04-25T00:51:21.581Z,13.13
2023-04-25T00:53:51.070Z,12.84
2023-04-25T00:56:18.437Z,12.59
2023-04-25T00:58:49.395Z,13.40
2023-04-25T01:01:16.340Z,12.92
2023-04-25T01:03:44.081Z,13.01
2023-04-25T01:06:11.663Z,13.22
2023-04-25T01:08:54.979Z,13.43
2023-04-25T01:11:21.838Z,13.00
2023-04-25T01:13:49.219Z,13.20
2023-04-25T01:16:16.496Z,13.80
2023-04-25T01:19:14.663Z,13.40
2023-04-25T01:21:41.814Z,13.44
2023-04-25T01:24:09.114Z,13.38
2023-04-25T01:26:36.856Z,12.92
2023-04-25T01:32:45.566Z,13.41
2023-04-25T01:35:13.332Z,12.89
2023-04-25T01:38:30.023Z,12.84
2023-04-25T01:40:57.416Z,12.92
2023-04-25T01:43:24.505Z,13.40
2023-04-25T01:45:52.769Z,12.94
2023-04-25T01:48:43.380Z,13.20
2023-04-25T01:51:11.006Z,12.95
2023-04-25T01:53:37.860Z,13.17
2023-04-25T01:56:05.158Z,12.21
2023-04-25T01:58:36.105Z,12.86
2023-04-25T02:01:03.425Z,12.96
2023-04-25T02:03:32.498Z,13.41
2023-04-25T02:05:59.585Z,13.45
2023-04-25T02:08:50.555Z,12.50
2023-04-25T02:11:17.895Z,12.24
2023-04-25T02:13:44.521Z,12.86
2023-04-25T02:16:11.467Z,12.27
2023-04-25T02:18:49.597Z,12.91
2023-04-25T02:21:16.484Z,12.48
2023-04-25T02:23:43.365Z,12.53
2023-04-25T02:26:10.230Z,12.38
2023-04-25T02:29:05.996Z,12.48
2023-04-25T02:31:32.997Z,12.60
2023-04-25T02:33:59.863Z,12.33
2023-04-25T02:36:27.413Z,12.24
2023-04-25T02:39:11.668Z,12.27
2023-04-25T02:41:38.627Z,12.39
2023-04-25T02:44:05.570Z,12.20
2023-04-25T02:46:39.615Z,12.70
2023-04-25T02:49:23.954Z,12.64
2023-04-25T02:51:50.911Z,12.49
2023-04-25T02:54:17.832Z,12.31
2023-04-25T02:56:44.669Z,12.08
2023-04-25T02:59:13.382Z,12.39
2023-04-25T03:01:40.257Z,12.51
2023-04-25T03:04:07.141Z,12.32
2023-04-25T03:06:34.101Z,12.08
2023-04-25T03:09:08.869Z,12.15
2023-04-25T03:11:35.843Z,12.13
2023-04-25T03:14:02.678Z,12.25
2023-04-25T03:16:29.436Z,12.18
2023-04-25T03:19:21.656Z,11.80
2023-04-25T03:21:48.782Z,12.68
2023-04-25T03:24:15.661Z,12.21
2023-04-25T03:26:42.491Z,12.26
2023-04-25T03:29:17.384Z,12.47
2023-04-25T03:31:44.379Z,12.40
2023-04-25T03:34:11.355Z,12.32
2023-04-25T03:36:39.179Z,11.85
2023-04-25T03:39:20.723Z,11.84
2023-04-25T03:41:47.721Z,12.70
2023-04-25T03:44:14.990Z,12.30
2023-04-25T03:46:41.866Z,12.40
2023-04-25T03:49:28.265Z,12.40
2023-04-25T03:51:55.148Z,12.10
2023-04-25T03:54:22.097Z,12.49
2023-04-25T03:56:49.746Z,11.67
2023-04-25T03:59:39.340Z,11.81
2023-04-25T04:02:06.318Z,12.62
2023-04-25T04:04:33.493Z,12.47
2023-04-25T04:07:00.898Z,12.40
2023-04-25T04:09:45.610Z,12.06
2023-04-25T04:12:12.479Z,12.64
2023-04-25T04:14:39.331Z,12.55
2023-04-25T04:17:07.152Z,13.28
2023-04-25T04:19:40.861Z,12.76
2023-04-25T04:22:07.713Z,12.57
2023-04-25T04:24:34.595Z,12.49
2023-04-25T04:27:01.444Z,12.48
2023-04-25T04:33:34.488Z,13.64
2023-04-25T04:36:02.030Z,13.54
2023-04-25T04:38:42.091Z,13.57
2023-04-25T04:41:09.427Z,13.35
2023-04-25T04:43:36.302Z,13.62
2023-04-25T04:46:04.663Z,12.71
2023-04-25T04:48:51.112Z,12.73
2023-04-25T04:51:17.989Z,13.22
2023-04-25T04:53:44.852Z,13.26
2023-04-25T04:56:11.710Z,12.02
2023-04-25T04:58:39.574Z,12.85
2023-04-25T05:01:06.460Z,13.24
2023-04-25T05:03:33.451Z,13.10
2023-04-25T05:06:00.370Z,13.26
2023-04-25T05:08:29.047Z,13.34
2023-04-25T05:10:55.994Z,13.16
2023-04-25T05:13:22.862Z,13.36
2023-04-25T05:15:49.717Z,13.08
2023-04-25T05:18:18.617Z,12.80
2023-04-25T05:20:45.629Z,12.90
2023-04-25T05:23:12.470Z,13.38
2023-04-25T05:25:39.342Z,13.34
2023-04-25T05:28:29.040Z,13.32
2023-04-25T05:30:55.937Z,13.59
2023-04-25T05:33:22.856Z,13.22
2023-04-25T05:35:49.791Z,13.16
2023-04-25T05:38:29.194Z,13.48
2023-04-25T05:40:56.041Z,13.11
2023-04-25T05:43:22.885Z,13.64
2023-04-25T05:45:49.828Z,13.31
2023-04-25T05:48:18.700Z,13.34
2023-04-25T05:50:45.599Z,13.42
2023-04-25T05:53:12.506Z,13.65
2023-04-25T05:55:39.382Z,13.93
2023-04-25T05:58:28.062Z,13.27
2023-04-25T06:00:55.434Z,13.54
2023-04-25T06:03:22.604Z,13.76
2023-04-25T06:05:49.765Z,13.55
2023-04-25T06:08:16.720Z,13.51
2023-04-25T06:10:43.790Z,13.81
2023-04-25T06:13:10.674Z,13.67
2023-04-25T06:15:37.567Z,13.77
2023-04-25T06:18:04.588Z,13.90
2023-04-25T06:20:31.551Z,13.55
2023-04-25T06:22:58.474Z,13.98
2023-04-25T06:25:25.435Z,14.23
2023-04-25T06:27:52.392Z,14.04
2023-04-25T06:30:23.630Z,14.08
2023-04-25T06:32:50.791Z,13.98
2023-04-25T06:35:17.894Z,14.64
2023-04-25T06:37:44.862Z,15.24
2023-04-25T06:40:14.681Z,14.62
2023-04-25T06:42:50.608Z,14.69
2023-04-25T06:45:32.722Z,14.35
2023-04-25T06:48:00.164Z,14.40
2023-04-25T06:50:27.487Z,14.24
2023-04-25T06:52:56.503Z,14.49
2023-04-25T06:55:23.387Z,14.20
2023-04-25T06:57:50.304Z,14.56
2023-04-25T07:00:17.634Z,14.94
2023-04-25T07:02:44.883Z,14.77
2023-04-25T07:05:11.969Z,15.04
2023-04-25T07:07:54.261Z,14.66
2023-04-25T07:10:22.508Z,14.66
2023-04-25T07:12:49.444Z,14.99
2023-04-25T07:15:16.465Z,13.89
2023-04-25T07:17:43.610Z,14.40
2023-04-25T07:20:17.394Z,14.67
2023-04-25T07:22:49.943Z,15.49
2023-04-25T07:25:21.919Z,14.75
2023-04-25T07:30:33.002Z,14.62
2023-04-25T07:33:36.997Z,15.69
2023-04-25T07:36:08.400Z,15.40
2023-04-25T07:38:37.880Z,14.44
2023-04-25T07:41:05.060Z,15.18
2023-04-25T07:43:34.327Z,15.41
2023-04-25T07:46:01.302Z,16.19
2023-04-25T07:48:28.228Z,16.42
2023-04-25T07:50:58.774Z,16.32
2023-04-25T07:53:25.819Z,15.81
2023-04-25T07:55:52.828Z,15.78
2023-04-25T07:58:22.965Z,16.22
2023-04-25T08:00:50.331Z,16.16
2023-04-25T08:03:17.451Z,16.58
2023-04-25T08:05:44.805Z,17.14
2023-04-25T08:08:11.760Z,17.16
2023-04-25T08:10:38.648Z,17.21
2023-04-25T08:13:05.548Z,16.35
2023-04-25T08:15:32.629Z,17.11
2023-04-25T08:18:00.694Z,17.15
2023-04-25T08:20:30.726Z,17.19
2023-04-25T08:22:57.720Z,18.32
2023-04-25T08:25:24.579Z,17.41
2023-04-25T08:27:51.804Z,18.00
2023-04-25T08:30:18.643Z,17.67
2023-04-25T08:32:45.548Z,17.96
2023-04-25T08:35:12.544Z,17.14
2023-04-25T08:37:39.478Z,16.95
2023-04-25T08:40:08.292Z,16.12
2023-04-25T08:42:36.580Z,16.14
2023-04-25T08:45:07.096Z,16.43
2023-04-25T08:47:35.859Z,16.73
2023-04-25T08:50:08.036Z,16.84
2023-04-25T08:52:39.279Z,16.51
2023-04-25T08:55:09.591Z,16.51
2023-04-25T08:57:38.014Z,17.15
2023-04-25T09:00:05.472Z,16.70
2023-04-25T09:02:32.566Z,16.86
2023-04-25T09:04:59.822Z,16.64
2023-04-25T09:07:26.954Z,17.95
2023-04-25T09:09:53.805Z,17.62
2023-04-25T09:12:21.601Z,17.09
2023-04-25T09:15:12.360Z,17.13
2023-04-25T09:17:41.605Z,17.81
2023-04-25T09:20:13.987Z,18.42
2023-04-25T09:22:41.143Z,18.39
2023-04-25T09:25:12.964Z,18.91
2023-04-25T09:27:53.351Z,19.00
2023-04-25T09:30:20.573Z,19.67
2023-04-25T09:32:48.463Z,19.36
2023-04-25T09:35:26.514Z,19.45
2023-04-25T09:37:53.404Z,18.68
2023-04-25T09:40:20.615Z,19.58
2023-04-25T09:42:47.571Z,19.32
2023-04-25T09:45:16.258Z,19.69
2023-04-25T09:47:45.156Z,18.01
2023-04-25T09:50:20.489Z,18.17
2023-04-25T09:52:47.459Z,18.35
2023-04-25T09:55:14.415Z,18.42
2023-04-25T09:57:42.279Z,17.60
2023-04-25T10:00:13.417Z,16.60
2023-04-25T10:02:44.140Z,17.77
2023-04-25T10:05:11.862Z,17.36
2023-04-25T10:07:39.641Z,18.46
2023-04-25T10:10:07.188Z,18.36
2023-04-25T10:12:35.674Z,18.49
2023-04-25T10:15:04.293Z,18.43
2023-04-25T10:17:31.376Z,17.86
2023-04-25T10:19:58.814Z,17.81
2023-04-25T10:22:34.353Z,18.84
2023-04-25T10:25:02.137Z,18.10
2023-04-25T10:27:29.553Z,17.08
2023-04-25T10:30:16.615Z,17.66
2023-04-25T10:32:44.250Z,18.78
2023-04-25T10:35:17.928Z,19.47
2023-04-25T10:38:07.434Z,19.99
2023-04-25T10:40:34.736Z,20.72
2023-04-25T10:43:32.786Z,19.59
2023-04-25T10:46:02.970Z,18.39
2023-04-25T10:48:33.181Z,18.36
2023-04-25T10:51:10.515Z,17.96
2023-04-25T10:53:39.699Z,17.90
2023-04-25T10:56:20.596Z,17.20
2023-04-25T10:58:48.673Z,16.22
2023-04-25T11:01:21.960Z,17.01
2023-04-25T11:03:51.889Z,17.80
2023-04-25T11:06:29.262Z,18.15
2023-04-25T11:08:56.172Z,18.72
2023-04-25T11:11:23.077Z,19.47
2023-04-25T11:13:51.064Z,19.98
2023-04-25T11:16:27.457Z,19.73
2023-04-25T11:18:58.598Z,20.09
2023-04-25T11:21:29.051Z,19.40
2023-04-25T11:23:57.860Z,20.32
2023-04-25T11:26:26.121Z,20.51
2023-04-25T11:28:53.374Z,19.97
2023-04-25T11:31:23.647Z,20.01
2023-04-25T11:33:50.934Z,21.24
2023-04-25T11:36:18.000Z,21.77
2023-04-25T11:38:44.918Z,20.81
2023-04-25T11:41:12.723Z,20.80
2023-04-25T11:43:40.792Z,20.67
2023-04-25T11:46:09.291Z,21.34
2023-04-25T11:48:43.683Z,20.66
2023-04-25T11:51:10.675Z,20.67
2023-04-25T11:53:37.563Z,21.52
2023-04-25T11:56:11.470Z,20.84
2023-04-25T11:59:01.919Z,21.14
2023-04-25T12:01:35.335Z,21.48
2023-04-25T12:04:14.392Z,21.24
2023-04-25T12:06:43.658Z,19.88
2023-04-25T12:09:17.039Z,19.93
2023-04-25T12:11:45.388Z,18.73
2023-04-25T12:14:13.056Z,18.48
2023-04-25T12:16:47.675Z,18.79
2023-04-25T12:19:18.260Z,18.90
2023-04-25T12:21:57.210Z,19.35
2023-04-25T12:24:28.571Z,19.48
2023-04-25T12:27:03.494Z,20.31
2023-04-25T12:29:42.002Z,20.48
2023-04-25T12:32:16.604Z,20.22
2023-04-25T12:34:43.760Z,20.48
2023-04-25T12:37:11.620Z,20.68
2023-04-25T12:39:38.704Z,21.07
2023-04-25T12:42:09.294Z,21.08
2023-04-25T12:44:36.781Z,21.84
2023-04-25T12:47:04.603Z,21.52
2023-04-25T12:49:31.705Z,21.76
2023-04-25T12:51:58.815Z,22.13
2023-04-25T12:54:26.713Z,21.03
2023-04-25T12:56:53.848Z,20.19
2023-04-25T12:59:21.677Z,20.20
2023-04-25T13:01:48.846Z,21.03
2023-04-25T13:04:16.464Z,21.25
2023-04-25T13:06:43.701Z,21.57
2023-04-25T13:09:10.729Z,20.47
2023-04-25T13:11:37.618Z,21.09
2023-04-25T13:14:04.613Z,20.51
2023-04-25T13:16:31.700Z,20.91
2023-04-25T13:18:59.402Z,21.59
2023-04-25T13:21:26.715Z,20.96
2023-04-25T13:23:53.949Z,21.01
2023-04-25T13:26:21.386Z,21.11
2023-04-25T13:28:48.331Z,21.14
2023-04-25T13:31:15.205Z,21.06
2023-04-25T13:33:42.106Z,19.72
2023-04-25T13:36:09.221Z,20.61
2023-04-25T13:38:36.143Z,20.33
2023-04-25T13:41:03.009Z,20.88
2023-04-25T13:43:29.936Z,20.60
2023-04-25T13:45:56.945Z,20.49
2023-04-25T13:48:25.216Z,19.80
2023-04-25T13:50:52.079Z,19.60
2023-04-25T13:53:19.050Z,19.66
2023-04-25T13:55:46.100Z,19.23
2023-04-25T13:58:13.003Z,18.66
2023-04-25T14:00:40.715Z,18.06
2023-04-25T14:03:09.323Z,17.80
2023-04-25T14:05:40.530Z,18.02
2023-04-25T14:08:08.775Z,18.07
2023-04-25T14:10:36.349Z,18.47
2023-04-25T14:13:04.557Z,18.87
2023-04-25T14:15:33.600Z,19.03
2023-04-25T14:18:01.884Z,19.52
2023-04-25T14:20:29.162Z,18.64
2023-04-25T14:22:57.241Z,17.98
2023-04-25T14:25:24.765Z,18.42
2023-04-25T14:27:51.849Z,18.10
2023-04-25T14:30:22.137Z,17.71
2023-04-25T14:32:50.701Z,17.64
2023-04-25T14:35:18.128Z,17.21
2023-04-25T14:37:45.253Z,17.34
2023-04-25T14:40:14.203Z,16.89
2023-04-25T14:42:41.442Z,16.72
2023-04-25T14:45:09.828Z,16.19
2023-04-25T14:47:38.262Z,15.13
2023-04-25T14:50:06.317Z,14.41
2023-04-25T14:52:33.308Z,13.99
2023-04-25T14:55:03.169Z,13.48
2023-04-25T14:57:30.040Z,13.52
2023-04-25T14:59:56.947Z,14.10
2023-04-25T15:02:25.330Z,14.64
2023-04-25T15:04:52.382Z,15.04
2023-04-25T15:07:19.306Z,15.59
2023-04-25T15:09:46.204Z,15.93
2023-04-25T15:12:13.427Z,16.36
2023-04-25T15:14:40.336Z,16.97
2023-04-25T15:17:07.724Z,17.30
2023-04-25T15:19:34.617Z,17.58
2023-04-25T15:22:04.676Z,17.73
2023-04-25T15:24:31.777Z,17.18
2023-04-25T15:26:59.496Z,17.37
2023-04-25T15:29:27.379Z,17.16
2023-04-25T15:31:54.508Z,17.47
2023-04-25T15:34:21.651Z,17.21
2023-04-25T15:36:48.741Z,17.02
2023-04-25T15:39:15.694Z,17.29
2023-04-25T15:41:42.580Z,16.92
2023-04-25T15:44:11.255Z,16.85
2023-04-25T15:46:38.654Z,16.80
2023-04-25T15:49:05.626Z,16.63
2023-04-25T15:51:33.877Z,16.05
2023-04-25T15:54:02.639Z,16.20
2023-04-25T15:56:29.729Z,16.28
2023-04-25T15:58:56.658Z,16.85
2023-04-25T16:01:24.770Z,17.33
2023-04-25T16:03:53.364Z,16.59
2023-04-25T16:06:20.598Z,16.90
2023-04-25T16:08:47.608Z,16.66
2023-04-25T16:11:14.975Z,16.37
2023-04-25T16:13:41.882Z,15.69
2023-04-25T16:16:08.915Z,15.77
2023-04-25T16:18:35.981Z,16.25
2023-04-25T16:21:03.655Z,16.41
2023-04-25T16:23:31.475Z,15.85
2023-04-25T16:25:58.355Z,15.48
2023-04-25T16:28:25.570Z,15.71
2023-04-25T16:30:52.426Z,15.75
2023-04-25T16:33:19.391Z,15.36
2023-04-25T16:35:46.254Z,15.66
2023-04-25T16:38:13.137Z,16.28
2023-04-25T16:40:40.336Z,16.90
2023-04-25T16:43:07.200Z,17.38
2023-04-25T16:45:34.093Z,16.83
2023-04-25T16:48:00.973Z,17.11
2023-04-25T16:50:27.939Z,17.00
2023-04-25T16:52:54.809Z,16.47
2023-04-25T16:55:21.719Z,16.95
2023-04-25T16:57:48.619Z,16.61
2023-04-25T17:00:16.254Z,17.22
2023-04-25T17:02:43.686Z,16.65
2023-04-25T17:05:10.899Z,16.86
2023-04-25T17:07:37.795Z,17.16
2023-04-25T17:10:05.350Z,17.26
2023-04-25T17:12:32.240Z,17.35
2023-04-25T17:15:00.550Z,16.20
2023-04-25T17:17:28.003Z,17.28
2023-04-25T17:19:55.184Z,17.08
2023-04-25T17:22:22.547Z,16.37
2023-04-25T17:24:49.839Z,15.92
2023-04-25T17:27:16.885Z,15.86
2023-04-25T17:29:43.802Z,16.61
2023-04-25T17:32:10.875Z,14.93
2023-04-25T17:34:40.213Z,14.35
2023-04-25T17:37:09.766Z,14.65
2023-04-25T17:39:37.020Z,14.97
2023-04-25T17:42:04.049Z,15.88
2023-04-25T17:44:31.157Z,15.23
2023-04-25T17:46:58.073Z,14.39
2023-04-25T17:49:24.934Z,13.75
2023-04-25T17:51:51.838Z,14.44
2023-04-25T17:54:19.017Z,14.28
2023-04-25T17:56:48.751Z,14.29
2023-04-25T17:59:15.592Z,14.43
2023-04-25T18:01:47.655Z,14.59
2023-04-25T18:04:15.064Z,14.14
2023-04-25T18:06:41.902Z,14.54
2023-04-25T18:09:16.205Z,14.66
2023-04-25T18:11:46.731Z,14.59
2023-04-25T18:14:14.737Z,14.44
2023-04-25T18:16:45.081Z,14.36
2023-04-25T18:19:12.113Z,14.15
2023-04-25T18:21:39.213Z,14.88
2023-04-25T18:24:08.704Z,14.86
2023-04-25T18:26:35.952Z,14.86
2023-04-25T18:29:04.065Z,14.91
2023-04-25T18:31:32.310Z,14.19
2023-04-25T18:34:02.671Z,14.42
2023-04-25T18:36:29.736Z,14.19
2023-04-25T18:38:59.523Z,14.44
2023-04-25T18:41:51.928Z,13.31
2023-04-25T18:44:16.526Z,13.41
2023-04-25T18:46:50.470Z,13.31
2023-04-25T18:49:17.318Z,13.48
2023-04-25T18:51:44.407Z,13.47
2023-04-25T18:54:12.150Z,13.18
2023-04-25T18:56:41.822Z,13.45
2023-04-25T18:59:08.651Z,13.90
2023-04-25T19:01:35.724Z,13.25
2023-04-25T19:04:05.164Z,12.96
2023-04-25T19:06:33.651Z,13.22
2023-04-25T19:09:00.520Z,13.27
2023-04-25T19:11:27.441Z,12.84
2023-04-25T19:13:57.380Z,14.23
2023-04-25T19:16:26.507Z,13.44
2023-04-25T19:18:56.459Z,14.03
2023-04-25T19:21:23.807Z,13.86
2023-04-25T19:23:52.973Z,13.58
2023-04-25T19:26:20.928Z,13.97
2023-04-25T19:28:47.992Z,13.91
2023-04-25T19:31:14.952Z,13.92
2023-04-25T19:33:42.401Z,13.78
2023-04-25T19:36:09.257Z,13.76
2023-04-25T19:38:36.279Z,14.58
2023-04-25T19:41:03.127Z,14.82
2023-04-25T19:43:30.971Z,14.90
2023-04-25T19:45:58.095Z,14.65
2023-04-25T19:48:25.073Z,14.26
2023-04-25T19:50:52.148Z,14.27
2023-04-25T19:53:19.001Z,14.16
2023-04-25T19:55:45.860Z,14.54
2023-04-25T19:58:14.518Z,14.37
2023-04-25T20:00:41.451Z,14.24
2023-04-25T20:03:10.778Z,13.51
2023-04-25T20:05:37.879Z,13.72
2023-04-25T20:08:04.812Z,12.85
2023-04-25T20:10:31.989Z,14.00
2023-04-25T20:12:58.854Z,14.32
2023-04-25T20:15:25.814Z,14.41
2023-04-25T20:17:52.825Z,13.60
2023-04-25T20:20:20.289Z,13.39
2023-04-25T20:22:47.163Z,13.56
2023-04-25T20:25:14.088Z,13.15
2023-04-25T20:27:41.060Z,12.41
2023-04-25T20:30:09.382Z,12.25
2023-04-25T20:32:37.248Z,12.57
2023-04-25T20:35:05.743Z,12.99
2023-04-25T20:37:32.929Z,13.19
2023-04-25T20:40:01.053Z,13.41
2023-04-25T20:42:28.221Z,13.21
2023-04-25T20:44:55.324Z,13.42
2023-04-25T20:47:22.546Z,12.98
2023-04-25T20:49:50.083Z,12.27
2023-04-25T20:52:17.378Z,12.29
2023-04-25T20:54:50.382Z,11.76
2023-04-25T20:57:17.732Z,11.97
2023-04-25T20:59:44.956Z,12.10
2023-04-25T21:02:15.882Z,12.18
2023-04-25T21:04:44.426Z,12.03
2023-04-25T21:07:14.979Z,12.74
2023-04-25T21:09:43.077Z,12.35
2023-04-25T21:12:09.948Z,13.44
2023-04-25T21:14:36.826Z,12.52
2023-04-25T21:17:04.569Z,13.48
2023-04-25T21:19:31.728Z,13.15
2023-04-25T21:21:58.896Z,13.31
2023-04-25T21:24:27.357Z,12.48
2023-04-25T21:26:54.362Z,12.71
2023-04-25T21:29:21.227Z,13.65
2023-04-25T21:31:48.355Z,14.09
2023-04-25T21:34:15.266Z,12.62
2023-04-25T21:36:42.307Z,13.25
2023-04-25T21:39:10.924Z,12.72
2023-04-25T21:41:38.138Z,12.99
2023-04-25T21:44:05.066Z,13.37
2023-04-25T21:46:32.013Z,12.74
2023-04-25T21:48:59.025Z,12.27
2023-04-25T21:51:25.920Z,12.45
2023-04-25T21:53:53.082Z,12.05
2023-04-25T21:56:19.914Z,12.41
2023-04-25T21:58:46.565Z,11.75
2023-04-25T22:01:13.488Z,11.56
2023-04-25T22:03:40.707Z,11.31
2023-04-25T22:06:07.800Z,12.11
2023-04-25T22:08:34.679Z,12.28
2023-04-25T22:11:02.963Z,12.52
2023-04-25T22:13:30.059Z,11.64
2023-04-25T22:15:57.096Z,11.79
2023-04-25T22:18:24.008Z,11.97
2023-04-25T22:20:50.937Z,11.87
2023-04-25T22:23:17.860Z,11.84
2023-04-25T22:25:45.006Z,11.30
2023-04-25T22:28:13.181Z,12.05
2023-04-25T22:30:40.049Z,12.43
2023-04-25T22:33:07.158Z,10.87
2023-04-25T22:35:34.198Z,11.19
2023-04-25T22:38:01.747Z,11.53
2023-04-25T22:40:28.675Z,11.17
2023-04-25T22:42:55.585Z,11.42
2023-04-25T22:45:22.436Z,11.10
2023-04-25T22:47:49.370Z,11.09
2023-04-25T22:50:17.237Z,11.08
2023-04-25T22:52:44.229Z,10.36
2023-04-25T22:55:12.524Z,10.52
2023-04-25T22:57:39.787Z,10.24
2023-04-25T23:00:16.163Z,10.53
2023-04-25T23:02:46.226Z,10.35
2023-04-25T23:05:13.731Z,11.25
2023-04-25T23:07:40.749Z,10.77
2023-04-25T23:10:08.677Z,10.20
2023-04-25T23:12:35.712Z,9.93
2023-04-25T23:15:05.154Z,9.72
2023-04-25T23:17:32.271Z,10.22
2023-04-25T23:19:59.338Z,10.39
2023-04-25T23:22:26.275Z,9.99
2023-04-25T23:24:53.208Z,10.62
2023-04-25T23:27:20.168Z,10.16
2023-04-25T23:29:53.468Z,10.67
2023-04-25T23:32:20.786Z,10.39
2023-04-25T23:34:47.690Z,10.82
2023-04-25T23:37:14.542Z,10.42
2023-04-25T23:39:41.492Z,10.65
2023-04-25T23:42:08.349Z,10.65
2023-04-25T23:44:35.061Z,10.44
2023-04-25T23:47:02.007Z,10.46
2023-04-25T23:49:28.875Z,10.29
2023-04-25T23:51:55.704Z,9.81
2023-04-25T23:54:22.411Z,9.48
2023-04-25T23:56:49.248Z,9.74
2023-04-25T23:59:16.343Z,9.92
